Time;durP1;ratioP1;P1;durP2;ratioP2;P2;SDS_P1;SDS_P2;PMS_P1;PMS_P2;Temp;Humidity;BMP_temperature;BMP_pressure;BME280_temperature;BME280_humidity;BME280_pressure;Samples;Min_cycle;Max_cycle;Signal;HPM_P1;HPM_P2
2022/12/24 00:01:05;;;;;;;0.68;0.30;;;0.30;99.90;;;;;;5085804;28;20055;-64
2022/12/24 00:03:33;;;;;;;1.25;0.95;;;0.30;99.90;;;;;;5086229;28;20793;-61
2022/12/24 00:06:14;;;;;;;2.75;0.77;;;0.30;99.90;;;;;;5086048;28;20054;-62
2022/12/24 00:08:41;;;;;;;0.52;0.32;;;0.30;99.90;;;;;;5084161;28;20142;-63
2022/12/24 00:11:08;;;;;;;2.13;0.40;;;0.20;99.90;;;;;;5089681;28;20544;-63
2022/12/24 00:13:35;;;;;;;0.65;0.30;;;0.30;99.90;;;;;;5085369;28;20062;-60
2022/12/24 00:16:02;;;;;;;3.75;0.50;;;0.30;99.90;;;;;;5086744;28;20405;-67
2022/12/24 00:18:29;;;;;;;3.92;1.60;;;0.20;99.90;;;;;;5066878;28;20519;-62
2022/12/24 00:20:56;;;;;;;3.47;1.08;;;0.20;99.90;;;;;;5083686;28;20178;-61
2022/12/24 00:23:23;;;;;;;1.70;0.70;;;0.20;99.90;;;;;;5087110;28;20052;-63
2022/12/24 00:25:50;;;;;;;1.63;0.90;;;0.20;99.90;;;;;;5086122;28;20052;-63
2022/12/24 00:28:17;;;;;;;0.73;0.60;;;0.20;99.90;;;;;;5086848;28;20055;-63
2022/12/24 00:30:44;;;;;;;0.60;0.45;;;0.20;99.90;;;;;;5065480;28;20098;-63
2022/12/24 00:33:11;;;;;;;2.55;0.50;;;0.10;99.90;;;;;;5086961;28;20051;-61
2022/12/24 00:35:39;;;;;;;4.45;0.63;;;0.10;99.90;;;;;;5086134;28;20135;-62
2022/12/24 00:38:07;;;;;;;4.43;0.80;;;0.10;99.90;;;;;;5086382;28;20059;-62
2022/12/24 00:40:34;;;;;;;3.03;0.80;;;0.10;99.90;;;;;;5086196;28;20066;-61
2022/12/24 00:43:01;;;;;;;5.95;0.88;;;0.00;99.90;;;;;;5084540;28;20377;-61
2022/12/24 00:45:28;;;;;;;1.35;0.50;;;0.00;99.90;;;;;;5084764;28;20197;-62
2022/12/24 00:47:55;;;;;;;1.58;0.80;;;-0.10;99.90;;;;;;5086023;28;20051;-62
2022/12/24 00:50:22;;;;;;;2.70;0.80;;;0.00;99.90;;;;;;5085574;28;20047;-61
2022/12/24 00:52:49;;;;;;;2.33;0.40;;;0.00;99.90;;;;;;5084670;28;20044;-63
2022/12/24 00:55:16;;;;;;;2.92;1.25;;;0.00;99.90;;;;;;5086126;28;20079;-61
2022/12/24 00:57:43;;;;;;;6.00;0.77;;;0.00;99.90;;;;;;5086809;28;20055;-61
2022/12/24 01:00:10;;;;;;;1.50;1.17;;;-0.10;99.90;;;;;;5085090;28;21382;-63
2022/12/24 01:02:37;;;;;;;1.90;1.02;;;-0.10;99.90;;;;;;5084222;28;20058;-64
2022/12/24 01:05:11;;;;;;;2.60;0.77;;;0.00;99.90;;;;;;5086240;28;20052;-62
2022/12/24 01:07:40;;;;;;;3.38;0.70;;;0.00;99.90;;;;;;5085885;28;20047;-60
2022/12/24 01:10:08;;;;;;;2.55;0.93;;;0.00;99.90;;;;;;5085895;28;20055;-62
2022/12/24 01:12:36;;;;;;;1.33;0.63;;;-0.10;99.90;;;;;;5086664;28;20060;-60
2022/12/24 01:15:03;;;;;;;0.88;0.80;;;-0.10;99.90;;;;;;5082663;28;20059;-63
2022/12/24 01:17:32;;;;;;;3.50;0.82;;;-0.10;99.90;;;;;;5086073;28;20146;-61
2022/12/24 01:19:59;;;;;;;1.58;0.60;;;-0.20;99.90;;;;;;5085408;28;20051;-62
2022/12/24 01:22:26;;;;;;;2.65;0.88;;;-0.10;99.90;;;;;;5086167;28;20395;-61
2022/12/24 01:24:53;;;;;;;1.27;0.60;;;-0.10;99.90;;;;;;5087931;28;20060;-63
2022/12/24 01:27:19;;;;;;;3.83;0.80;;;0.00;99.90;;;;;;5090211;28;20584;-63
2022/12/24 01:29:46;;;;;;;4.25;0.90;;;0.00;99.90;;;;;;5087615;28;20115;-63
2022/12/24 01:32:13;;;;;;;3.78;1.00;;;-0.10;99.90;;;;;;5089045;28;20047;-61
2022/12/24 01:34:41;;;;;;;1.42;0.82;;;-0.10;99.90;;;;;;5086176;28;20059;-62
2022/12/24 01:37:08;;;;;;;0.73;0.50;;;0.00;99.90;;;;;;5088274;28;20137;-62
2022/12/24 01:39:35;;;;;;;4.88;0.90;;;0.00;99.90;;;;;;5088935;28;20051;-63
2022/12/24 01:44:55;;;;;;;4.13;0.82;;;-0.10;99.90;;;;;;5086803;28;20458;-62
2022/12/24 01:47:29;;;;;;;1.17;0.50;;;-0.10;99.90;;;;;;5089672;28;20107;-61
2022/12/24 01:50:09;;;;;;;1.30;0.98;;;-0.20;99.90;;;;;;5088351;28;20551;-61
2022/12/24 01:52:36;;;;;;;;;;;-0.20;99.90;;;;;;5090042;28;20989;-62
2022/12/24 01:55:12;;;;;;;1.15;0.63;;;-0.20;99.90;;;;;;5086989;28;19949;-61
2022/12/24 01:57:45;;;;;;;4.82;1.25;;;-0.10;99.90;;;;;;5089815;28;20812;-61
2022/12/24 02:00:14;;;;;;;1.15;0.60;;;-0.10;99.90;;;;;;5088268;28;20043;-63
2022/12/24 02:02:48;;;;;;;2.15;0.73;;;-0.20;99.90;;;;;;5087584;28;21465;-63
2022/12/24 02:05:42;;;;;;;3.67;0.63;;;-0.20;99.90;;;;;;5089257;28;20066;-62
2022/12/24 02:08:09;;;;;;;3.15;0.75;;;-0.20;99.90;;;;;;5088984;28;20056;-61
2022/12/24 02:10:37;;;;;;;1.60;0.80;;;-0.30;99.90;;;;;;5088899;28;20138;-63
2022/12/24 02:13:05;;;;;;;1.17;0.60;;;-0.20;99.90;;;;;;5087678;28;20073;-61
2022/12/24 02:15:55;;;;;;;1.27;0.60;;;-0.20;99.90;;;;;;5088547;28;20056;-64
2022/12/24 02:18:37;;;;;;;1.27;0.70;;;-0.20;99.90;;;;;;5088770;28;20052;-61
2022/12/24 02:21:16;;;;;;;1.98;0.73;;;-0.30;99.90;;;;;;5086520;28;20052;-61
2022/12/24 02:23:55;;;;;;;1.27;0.52;;;-0.30;99.90;;;;;;5088645;28;20212;-62
2022/12/24 02:26:34;;;;;;;1.83;0.73;;;-0.30;99.90;;;;;;5088196;28;20474;-64
2022/12/24 02:29:46;;;;;;;1.38;0.50;;;-0.30;99.90;;;;;;5086045;28;20052;-62
2022/12/24 02:32:23;;;;;;;4.75;0.75;;;-0.40;99.90;;;;;;5088128;28;20052;-63
2022/12/24 02:34:53;;;;;;;0.85;0.68;;;-0.40;99.90;;;;;;5085136;28;20044;-63
2022/12/24 02:37:32;;;;;;;5.50;1.02;;;-0.40;99.90;;;;;;5088642;28;20142;-63
2022/12/24 02:40:13;;;;;;;1.60;0.98;;;-0.40;99.90;;;;;;5086662;28;20349;-63
2022/12/24 02:42:49;;;;;;;5.32;0.88;;;-0.40;99.90;;;;;;5086203;28;20055;-61
2022/12/24 02:45:20;;;;;;;1.65;0.68;;;-0.40;99.90;;;;;;5067504;28;20363;-62
2022/12/24 02:47:48;;;;;;;2.78;0.80;;;-0.40;99.90;;;;;;5088219;28;20052;-63
2022/12/24 02:50:16;;;;;;;1.98;1.75;;;-0.40;99.90;;;;;;5087230;28;20126;-62
2022/12/24 02:52:45;;;;;;;2.00;0.43;;;-0.40;99.90;;;;;;5087074;28;20044;-64
2022/12/24 02:55:19;;;;;;;1.08;0.40;;;-0.50;99.90;;;;;;5087886;28;20150;-62
2022/12/24 02:57:55;;;;;;;1.45;0.60;;;-0.60;99.90;;;;;;5088163;28;20052;-62
2022/12/24 03:00:24;;;;;;;0.52;0.40;;;-0.50;99.90;;;;;;5086986;28;20427;-62
2022/12/24 03:03:06;;;;;;;1.65;0.60;;;-0.40;99.90;;;;;;5086044;28;20071;-63
2022/12/24 03:06:02;;;;;;;0.90;0.70;;;-0.40;99.90;;;;;;5087818;28;20044;-61
2022/12/24 03:08:56;;;;;;;1.77;0.65;;;-0.40;99.90;;;;;;5087540;28;20627;-64
2022/12/24 03:11:23;;;;;;;1.92;0.70;;;-0.40;99.90;;;;;;5086963;28;20047;-63
2022/12/24 03:13:51;;;;;;;2.03;0.50;;;-0.40;99.90;;;;;;5067583;28;20052;-62
2022/12/24 03:16:24;;;;;;;1.10;0.68;;;-0.40;99.90;;;;;;5086975;28;20063;-60
2022/12/24 03:18:54;;;;;;;0.40;0.40;;;-0.40;99.90;;;;;;5085514;28;20048;-65
2022/12/24 03:21:31;;;;;;;4.82;0.63;;;-0.40;99.90;;;;;;5087021;28;20048;-62
2022/12/24 03:23:59;;;;;;;5.68;1.23;;;-0.40;99.90;;;;;;5087212;28;20130;-61
2022/12/24 03:26:29;;;;;;;5.72;1.38;;;-0.50;99.90;;;;;;5087680;28;20051;-63
2022/12/24 03:28:56;;;;;;;;;;;-0.70;99.90;;;;;;5086109;28;20067;-62
2022/12/24 03:31:23;;;;;;;2.72;1.20;;;-0.90;99.90;;;;;;5086455;28;19934;-62
2022/12/24 03:33:50;;;;;;;3.90;1.20;;;-1.20;99.90;;;;;;5067090;28;20877;-63
2022/12/24 03:36:17;;;;;;;5.93;1.23;;;-1.40;99.90;;;;;;5086686;28;20334;-61
2022/12/24 03:38:44;;;;;;;4.82;0.95;;;-1.60;99.90;;;;;;5085692;28;20188;-62
2022/12/24 03:41:11;;;;;;;1.35;1.13;;;-1.80;99.90;;;;;;5086411;28;20219;-62
2022/12/24 03:43:38;;;;;;;5.00;1.30;;;-2.00;99.90;;;;;;5086909;28;20055;-62
2022/12/24 03:46:07;;;;;;;2.13;1.55;;;-2.10;99.90;;;;;;5085966;28;20043;-63
2022/12/24 03:48:35;;;;;;;4.00;1.10;;;-2.20;99.90;;;;;;5087408;28;20852;-62
2022/12/24 03:51:03;;;;;;;3.95;1.52;;;-2.30;99.90;;;;;;5084967;28;20146;-61
2022/12/24 03:53:30;;;;;;;3.05;1.48;;;-2.30;99.90;;;;;;5086978;28;20049;-61
2022/12/24 03:55:57;;;;;;;2.35;1.60;;;-2.40;99.90;;;;;;5086610;28;20580;-61
2022/12/24 03:58:24;;;;;;;2.22;1.83;;;-2.40;99.90;;;;;;5087151;28;20051;-62
2022/12/24 04:00:52;;;;;;;5.30;1.80;;;-2.40;99.90;;;;;;5084645;28;20063;-61
2022/12/24 04:03:19;;;;;;;4.63;2.40;;;-2.50;99.90;;;;;;5087409;28;20048;-61
2022/12/24 04:05:47;;;;;;;4.15;2.05;;;-2.60;99.90;;;;;;5086072;28;20055;-62
2022/12/24 04:08:14;;;;;;;2.25;1.35;;;-2.60;99.90;;;;;;5086698;28;20382;-61
2022/12/24 04:10:41;;;;;;;3.33;1.23;;;-2.60;99.90;;;;;;5084236;28;20047;-62
2022/12/24 04:13:08;;;;;;;5.03;1.13;;;-2.70;99.90;;;;;;5087258;28;20051;-61
2022/12/24 04:15:34;;;;;;;3.38;1.08;;;-2.70;99.90;;;;;;5086136;28;20398;-62
2022/12/24 04:18:01;;;;;;;2.58;1.10;;;-2.70;99.90;;;;;;5086695;28;20051;-61
2022/12/24 04:20:28;;;;;;;2.17;1.33;;;-2.80;99.90;;;;;;5086197;28;20464;-61
2022/12/24 04:22:55;;;;;;;3.35;1.40;;;-2.80;99.90;;;;;;5085081;28;20138;-62
2022/12/24 04:25:22;;;;;;;1.48;1.27;;;-2.90;99.90;;;;;;5086061;28;20044;-61
2022/12/24 04:27:49;;;;;;;2.00;0.98;;;-2.90;99.90;;;;;;5086550;28;20044;-64
2022/12/24 04:30:16;;;;;;;4.30;1.33;;;-3.00;99.90;;;;;;5085359;28;20131;-61
2022/12/24 04:32:43;;;;;;;1.40;0.90;;;-3.00;99.90;;;;;;5084599;28;20171;-62
2022/12/24 04:35:10;;;;;;;1.50;1.00;;;-3.00;99.90;;;;;;5085780;28;20052;-61
2022/12/24 04:37:37;;;;;;;2.67;1.83;;;-3.10;99.90;;;;;;5086244;28;20105;-61
2022/12/24 04:40:04;;;;;;;7.50;1.20;;;-3.10;99.90;;;;;;5085804;28;20048;-64
2022/12/24 04:42:31;;;;;;;5.80;1.13;;;-3.20;99.90;;;;;;5086984;28;20320;-61
2022/12/24 04:44:58;;;;;;;2.22;0.57;;;-3.20;99.90;;;;;;5083764;28;20051;-62
2022/12/24 04:47:25;;;;;;;2.40;1.02;;;-3.30;99.90;;;;;;5066939;28;20054;-63
2022/12/24 04:49:52;;;;;;;0.98;0.80;;;-3.30;99.90;;;;;;5085943;28;20508;-62
2022/12/24 04:52:19;;;;;;;5.32;1.15;;;-3.30;99.90;;;;;;5086538;28;21419;-62
2022/12/24 04:54:46;;;;;;;3.40;1.52;;;-3.40;99.90;;;;;;5084434;28;20074;-62
2022/12/24 04:57:12;;;;;;;5.03;1.52;;;-3.30;99.90;;;;;;5086959;28;20047;-63
2022/12/24 04:59:39;;;;;;;2.38;1.45;;;-3.40;99.90;;;;;;5089996;28;20425;-61
2022/12/24 05:02:06;;;;;;;5.25;1.15;;;-3.40;99.90;;;;;;5089429;28;20203;-62
2022/12/24 05:04:34;;;;;;;1.45;0.93;;;-3.40;99.90;;;;;;5089675;28;20047;-61
2022/12/24 05:07:01;;;;;;;0.98;0.88;;;-3.50;99.90;;;;;;5087685;28;20155;-61
2022/12/24 05:09:27;;;;;;;2.97;1.98;;;-3.50;99.90;;;;;;5090487;28;20047;-62
2022/12/24 05:11:54;;;;;;;5.18;1.52;;;-3.60;99.90;;;;;;5090111;28;20064;-62
2022/12/24 05:14:21;;;;;;;4.03;1.10;;;-3.60;99.90;;;;;;5089889;28;20474;-61
2022/12/24 05:16:48;;;;;;;6.75;2.15;;;-3.60;99.90;;;;;;5067830;28;20353;-63
2022/12/24 05:19:15;;;;;;;3.67;1.17;;;-3.60;99.90;;;;;;5090125;28;20069;-63
2022/12/24 05:21:42;;;;;;;5.10;1.40;;;-3.60;99.90;;;;;;5089847;28;20047;-63
2022/12/24 05:26:58;;;;;;;5.97;1.63;;;-3.70;99.90;;;;;;5087726;28;20391;-61
2022/12/24 05:29:25;;;;;;;2.22;1.30;;;-3.70;99.90;;;;;;5089104;28;20747;-63
2022/12/24 05:31:52;;;;;;;3.22;1.10;;;-3.70;99.90;;;;;;5088804;28;20470;-62
2022/12/24 05:34:19;;;;;;;4.95;1.20;;;-3.70;99.90;;;;;;5089253;28;20326;-61
2022/12/24 05:36:45;;;;;;;1.42;0.93;;;-3.70;99.90;;;;;;5087565;28;20054;-62
2022/12/24 05:39:16;;;;;;;2.22;1.67;;;-3.70;99.90;;;;;;5089570;28;20048;-62
2022/12/24 05:41:44;;;;;;;2.38;1.20;;;-3.70;99.90;;;;;;5088786;28;20054;-61
2022/12/24 05:44:12;;;;;;;2.72;1.13;;;-3.80;99.90;;;;;;5088646;28;20040;-62
2022/12/24 05:46:39;;;;;;;8.77;2.20;;;-3.80;99.90;;;;;;5087915;28;20451;-64
2022/12/24 05:49:06;;;;;;;5.25;1.40;;;-3.90;99.90;;;;;;5088809;28;20040;-63
2022/12/24 05:51:33;;;;;;;5.05;1.75;;;-3.90;99.90;;;;;;5088865;28;20463;-61
2022/12/24 05:54:00;;;;;;;4.47;1.90;;;-3.80;99.90;;;;;;5089556;28;20075;-64
2022/12/24 05:56:27;;;;;;;6.70;1.92;;;-3.90;99.90;;;;;;5089034;28;20384;-61
2022/12/24 05:58:54;;;;;;;8.88;2.08;;;-3.90;99.90;;;;;;5086845;28;20471;-64
2022/12/24 06:01:22;;;;;;;6.28;2.83;;;-3.90;99.90;;;;;;5089161;28;20052;-62
2022/12/24 06:03:49;;;;;;;7.70;4.03;;;-3.90;99.90;;;;;;5088920;28;20052;-61
2022/12/24 06:06:19;;;;;;;6.70;2.38;;;-3.90;99.90;;;;;;5088734;28;20079;-62
2022/12/24 06:08:47;;;;;;;;;;;-3.90;99.90;;;;;;5087407;28;20075;-61
2022/12/24 06:11:17;;;;;;;17.52;4.68;;;-3.90;99.90;;;;;;5088514;28;19924;-63
2022/12/24 06:13:44;;;;;;;3.88;2.95;;;-3.90;99.90;;;;;;5087492;28;20132;-60
2022/12/24 06:16:15;;;;;;;4.88;3.15;;;-3.90;99.90;;;;;;5088494;28;20497;-64
2022/12/24 06:18:42;;;;;;;5.90;4.72;;;-3.90;99.90;;;;;;5087057;28;20040;-63
2022/12/24 06:21:10;;;;;;;5.10;4.25;;;-3.90;99.90;;;;;;5088189;28;20074;-61
2022/12/24 06:23:40;;;;;;;13.18;6.75;;;-3.90;99.90;;;;;;5088770;28;20069;-63
2022/12/24 06:26:09;;;;;;;7.32;4.10;;;-3.90;99.90;;;;;;5087914;28;20055;-63
2022/12/24 06:28:37;;;;;;;9.18;5.28;;;-3.90;99.90;;;;;;5087460;28;20166;-61
2022/12/24 06:31:05;;;;;;;13.80;5.57;;;-3.90;99.90;;;;;;5086037;28;20171;-61
2022/12/24 06:33:33;;;;;;;5.32;2.75;;;-3.90;99.90;;;;;;5088552;28;20043;-63
2022/12/24 06:36:00;;;;;;;6.15;2.70;;;-3.90;99.90;;;;;;5087415;28;20732;-63
2022/12/24 06:38:29;;;;;;;4.15;2.63;;;-3.80;99.90;;;;;;5088232;28;20134;-60
2022/12/24 06:40:57;;;;;;;11.70;3.53;;;-3.70;99.90;;;;;;5085936;28;20498;-64
2022/12/24 06:43:23;;;;;;;8.55;3.25;;;-3.70;99.90;;;;;;5088191;28;20320;-65
2022/12/24 06:45:50;;;;;;;8.75;2.03;;;-3.60;99.90;;;;;;5087974;28;20058;-61
2022/12/24 06:48:17;;;;;;;4.53;1.77;;;-3.50;99.90;;;;;;5087887;28;20059;-61
2022/12/24 06:50:45;;;;;;;5.47;3.10;;;-3.50;99.90;;;;;;5086504;28;20084;-62
2022/12/24 06:53:12;;;;;;;15.07;2.88;;;-3.50;99.90;;;;;;5087734;28;20120;-61
2022/12/24 06:55:39;;;;;;;2.60;1.95;;;-3.50;99.90;;;;;;5088051;28;20052;-64
2022/12/24 06:58:06;;;;;;;4.75;2.85;;;-3.40;99.90;;;;;;5088186;28;20548;-63
2022/12/24 07:00:33;;;;;;;11.15;2.47;;;-3.40;99.90;;;;;;5087183;28;20047;-61
2022/12/24 07:03:00;;;;;;;16.58;3.03;;;-3.50;99.90;;;;;;5086275;28;20795;-64
2022/12/24 07:05:27;;;;;;;17.35;3.20;;;-3.60;99.90;;;;;;5087260;28;20321;-61
2022/12/24 07:07:54;;;;;;;8.27;3.60;;;-3.60;99.90;;;;;;5087977;28;20116;-62
2022/12/24 07:10:21;;;;;;;10.57;3.80;;;-3.70;99.90;;;;;;5087234;28;20040;-64
2022/12/24 07:12:48;;;;;;;10.23;4.03;;;-3.80;99.90;;;;;;5085546;28;20438;-62
2022/12/24 07:15:15;;;;;;;7.70;4.43;;;-3.80;99.90;;;;;;5086483;28;20387;-61
2022/12/24 07:17:43;;;;;;;12.45;5.10;;;-3.90;99.90;;;;;;5067079;28;20454;-63
2022/12/24 07:20:13;;;;;;;13.70;4.77;;;-4.00;99.90;;;;;;5086275;28;20048;-61
2022/12/24 07:22:41;;;;;;;10.35;3.38;;;-3.90;99.90;;;;;;5084356;28;20079;-62
2022/12/24 07:25:09;;;;;;;7.33;2.90;;;-3.90;99.90;;;;;;5085000;28;20142;-61
2022/12/24 07:27:37;;;;;;;9.77;2.95;;;-3.80;99.90;;;;;;5086455;28;20055;-61
2022/12/24 07:30:05;;;;;;;9.55;2.30;;;-3.70;99.90;;;;;;5085569;28;20056;-62
2022/12/24 07:32:32;;;;;;;3.03;1.88;;;-3.50;99.90;;;;;;5085905;28;20078;-63
2022/12/24 07:34:59;;;;;;;12.98;2.67;;;-3.20;99.90;;;;;;5083967;28;20052;-61
2022/12/24 07:37:26;;;;;;;12.20;4.28;;;-3.10;99.90;;;;;;5086801;28;20067;-61
2022/12/24 07:39:53;;;;;;;33.53;15.93;;;-2.90;99.90;;;;;;5086105;28;20409;-63
2022/12/24 07:42:20;;;;;;;27.23;15.35;;;-3.10;99.90;;;;;;5087257;28;20071;-61
2022/12/24 07:44:47;;;;;;;29.13;15.70;;;-3.20;99.90;;;;;;5084644;28;20155;-62
2022/12/24 07:47:14;;;;;;;18.98;13.57;;;-3.40;99.90;;;;;;5086416;28;20430;-62
2022/12/24 07:49:41;;;;;;;32.47;17.88;;;-3.50;99.90;;;;;;5086322;28;20118;-62
2022/12/24 07:52:08;;;;;;;31.10;17.23;;;-3.60;99.90;;;;;;5087625;28;20082;-62
2022/12/24 07:54:35;;;;;;;23.00;16.98;;;-3.70;99.90;;;;;;5086323;28;20047;-64
2022/12/24 07:57:02;;;;;;;26.33;16.52;;;-3.70;99.90;;;;;;5085071;28;20047;-61
2022/12/24 07:59:28;;;;;;;22.58;14.63;;;-3.80;99.90;;;;;;5087440;28;20123;-62
2022/12/24 08:01:55;;;;;;;21.55;10.13;;;-3.80;99.90;;;;;;5086290;28;20058;-61
2022/12/24 08:04:22;;;;;;;19.00;10.63;;;-3.90;99.90;;;;;;5086751;28;20470;-63
2022/12/24 08:06:50;;;;;;;28.20;12.93;;;-3.90;99.90;;;;;;5085839;28;20785;-62
2022/12/24 08:09:17;;;;;;;21.67;10.73;;;-3.90;99.90;;;;;;5086693;28;20070;-63
2022/12/24 08:11:43;;;;;;;18.47;8.50;;;-4.00;99.90;;;;;;5086475;28;20040;-63
2022/12/24 08:14:18;;;;;;;33.20;13.27;;;-4.00;99.90;;;;;;5086860;28;20059;-60
2022/12/24 08:16:45;;;;;;;30.80;13.05;;;-3.90;99.90;;;;;;5084988;28;20135;-62
2022/12/24 08:19:12;;;;;;;26.17;14.18;;;-4.00;99.90;;;;;;5087783;28;20062;-62
2022/12/24 08:21:39;;;;;;;35.92;12.85;;;-4.00;99.90;;;;;;5087021;28;20048;-62
2022/12/24 08:24:06;;;;;;;25.23;13.25;;;-4.00;99.90;;;;;;5067409;28;20420;-64
2022/12/24 08:26:33;;;;;;;27.00;13.85;;;-3.90;99.90;;;;;;5086280;28;20071;-62
2022/12/24 08:29:00;;;;;;;20.50;13.27;;;-3.90;99.90;;;;;;5084211;28;20075;-63
2022/12/24 08:31:27;;;;;;;21.15;13.55;;;-3.70;99.90;;;;;;5086437;28;20046;-62
2022/12/24 08:33:54;;;;;;;30.85;14.90;;;-3.50;99.90;;;;;;5090250;28;20051;-63
2022/12/24 08:36:21;;;;;;;22.70;17.45;;;-3.50;99.90;;;;;;5090782;28;20108;-62
2022/12/24 08:38:48;;;;;;;25.52;15.95;;;-3.60;99.90;;;;;;5088795;28;20052;-62
2022/12/24 08:41:15;;;;;;;33.65;14.55;;;-3.60;99.90;;;;;;5090865;28;20055;-62
2022/12/24 08:43:42;;;;;;;14.02;7.40;;;-3.50;99.90;;;;;;5090264;28;20142;-63
2022/12/24 08:46:09;;;;;;;12.00;6.88;;;-3.40;99.90;;;;;;5089696;28;20109;-61
2022/12/24 08:48:36;;;;;;;33.00;13.70;;;-3.20;99.90;;;;;;5090499;28;20048;-61
2022/12/24 08:51:08;;;;;;;37.38;21.48;;;-3.20;99.90;;;;;;5088186;28;20051;-63
2022/12/24 08:53:35;;;;;;;38.10;19.38;;;-3.20;99.90;;;;;;5090112;28;21382;-61
2022/12/24 08:56:04;;;;;;;43.72;19.38;;;-3.20;99.90;;;;;;5090777;28;20065;-62
2022/12/24 08:58:32;;;;;;;16.83;11.80;;;-3.00;99.90;;;;;;5092469;28;20071;-61
2022/12/24 09:00:59;;;;;;;17.35;10.50;;;-2.90;99.90;;;;;;5087325;27;20043;-63
2022/12/24 09:03:26;;;;;;;15.60;5.65;;;-2.80;99.90;;;;;;5089912;27;20048;-62
2022/12/24 09:05:54;;;;;;;11.65;4.18;;;-2.70;99.90;;;;;;5090425;27;20112;-63
2022/12/24 09:08:21;;;;;;;12.57;3.95;;;-2.50;99.90;;;;;;5090605;27;20108;-63
2022/12/24 09:10:48;;;;;;;7.60;3.25;;;-2.30;99.90;;;;;;5088819;28;20812;-62
2022/12/24 09:13:15;;;;;;;5.57;1.27;;;-2.00;99.90;;;;;;5089410;28;20072;-65
2022/12/24 09:15:42;;;;;;;3.60;2.35;;;-1.70;99.90;;;;;;5089623;28;20067;-63
2022/12/24 09:18:09;;;;;;;8.82;1.38;;;-1.50;99.90;;;;;;5089831;28;20051;-62
2022/12/24 09:20:36;;;;;;;17.20;3.10;;;-1.40;99.90;;;;;;5089552;28;20048;-63
2022/12/24 09:23:09;;;;;;;7.05;3.28;;;-1.30;99.90;;;;;;5087842;28;20059;-63
2022/12/24 09:25:41;;;;;;;4.10;2.50;;;-1.30;99.90;;;;;;5089274;28;20062;-62
2022/12/24 09:28:08;;;;;;;2.50;1.25;;;-1.30;99.90;;;;;;5089586;28;20058;-61
2022/12/24 09:30:36;;;;;;;4.22;1.20;;;-1.20;99.90;;;;;;5089276;28;20105;-61
2022/12/24 09:33:03;;;;;;;3.05;1.10;;;-1.10;99.90;;;;;;5087954;28;20373;-62
2022/12/24 09:35:30;;;;;;;4.13;1.45;;;-1.00;99.90;;;;;;5089039;28;20054;-61
2022/12/24 09:38:02;;;;;;;5.32;1.80;;;-1.00;99.90;;;;;;5089705;28;20063;-62
2022/12/24 09:40:38;;;;;;;2.42;1.42;;;-0.90;99.90;;;;;;5089038;28;20163;-63
2022/12/24 09:43:14;;;;;;;8.93;1.10;;;-0.80;99.90;;;;;;5087675;28;20049;-62
2022/12/24 09:46:06;;;;;;;4.13;1.02;;;-0.80;99.90;;;;;;5089129;28;20137;-62
2022/12/24 09:48:40;;;;;;;3.28;1.08;;;-0.60;99.90;;;;;;5078750;28;20139;-64
2022/12/24 09:51:15;;;;;;;2.65;0.80;;;-0.70;99.90;;;;;;5086970;28;20159;-62
2022/12/24 09:53:58;;;;;;;2.30;0.63;;;-0.60;99.90;;;;;;5089246;28;20039;-63
2022/12/24 09:56:43;;;;;;;5.22;1.13;;;-0.60;99.90;;;;;;5088543;28;20492;-63
2022/12/24 09:59:25;;;;;;;0.82;0.77;;;-0.50;99.90;;;;;;5086685;28;20043;-62
2022/12/24 10:01:54;;;;;;;1.98;0.98;;;-0.50;99.90;;;;;;5088343;28;20073;-62
2022/12/24 10:04:27;;;;;;;3.17;0.75;;;-0.50;99.90;;;;;;5088787;28;20440;-61
2022/12/24 10:07:06;;;;;;;0.88;0.57;;;-0.40;99.90;;;;;;5087627;28;20047;-63
2022/12/24 10:09:44;;;;;;;1.05;0.57;;;-0.40;99.90;;;;;;5089319;28;20162;-63
2022/12/24 10:12:26;;;;;;;1.33;0.77;;;-0.30;99.90;;;;;;5088826;28;20536;-63
2022/12/24 10:15:30;;;;;;;2.38;0.90;;;-0.30;99.90;;;;;;5085968;28;20055;-65
2022/12/24 10:18:34;;;;;;;8.20;0.88;;;-0.30;99.90;;;;;;5088841;28;20071;-62
2022/12/24 10:21:20;;;;;;;4.07;0.95;;;-0.20;99.90;;;;;;5083826;28;20048;-63
2022/12/24 10:24:04;;;;;;;3.40;0.68;;;-0.20;99.90;;;;;;5088620;28;20135;-63
2022/12/24 10:27:01;;;;;;;1.67;0.68;;;-0.10;99.90;;;;;;5088790;28;20132;-63
2022/12/24 10:29:34;;;;;;;1.98;1.00;;;-0.10;99.90;;;;;;5086990;28;20396;-62
2022/12/24 10:32:07;;;;;;;1.85;0.70;;;0.00;99.90;;;;;;5088170;28;21507;-63
2022/12/24 10:35:03;;;;;;;3.33;0.98;;;0.00;99.90;;;;;;5087628;28;20188;-61
2022/12/24 10:37:30;;;;;;;2.00;0.80;;;0.00;99.90;;;;;;5086226;28;20058;-62
2022/12/24 10:39:59;;;;;;;5.07;0.55;;;0.00;99.90;;;;;;5069130;28;20048;-63
2022/12/24 10:42:43;;;;;;;3.42;0.95;;;0.00;99.90;;;;;;5088576;28;20054;-63
2022/12/24 10:45:21;;;;;;;1.70;0.30;;;0.10;99.90;;;;;;5086506;28;20232;-62
2022/12/24 10:47:54;;;;;;;1.02;0.38;;;0.10;99.90;;;;;;5088339;28;20083;-63
2022/12/24 10:50:33;;;;;;;8.07;0.60;;;0.10;99.90;;;;;;5087230;28;20139;-62
2022/12/24 10:53:30;;;;;;;2.35;0.70;;;0.10;99.90;;;;;;5086630;28;20396;-61
2022/12/24 10:56:03;;;;;;;6.00;1.35;;;0.10;99.90;;;;;;5086917;28;20168;-62
2022/12/24 10:58:30;;;;;;;3.70;0.63;;;0.10;99.90;;;;;;5087228;28;20071;-64
2022/12/24 11:00:57;;;;;;;5.28;0.73;;;0.10;99.90;;;;;;5084797;28;20226;-62
2022/12/24 11:03:33;;;;;;;2.75;0.68;;;0.10;99.90;;;;;;5087387;28;20051;-60
2022/12/24 11:06:05;;;;;;;7.85;1.95;;;0.20;99.90;;;;;;5086926;28;20078;-63
2022/12/24 11:08:33;;;;;;;3.25;1.17;;;0.20;99.90;;;;;;5087544;28;20073;-63
2022/12/24 11:11:04;;;;;;;2.97;0.60;;;0.30;99.90;;;;;;5085456;28;20059;-64
2022/12/24 11:13:36;;;;;;;6.47;0.98;;;0.40;99.90;;;;;;5087199;28;20059;-62
2022/12/24 11:16:06;;;;;;;8.68;2.00;;;0.40;99.90;;;;;;5087474;28;20051;-65
2022/12/24 11:18:36;;;;;;;7.05;1.33;;;0.50;99.90;;;;;;5087636;28;20044;-66
2022/12/24 11:21:04;;;;;;;3.67;0.93;;;0.50;99.90;;;;;;5084952;28;20166;-61
2022/12/24 11:23:31;;;;;;;1.95;1.20;;;0.50;99.90;;;;;;5086325;28;20047;-63
2022/12/24 11:25:58;;;;;;;7.63;0.77;;;0.50;99.90;;;;;;5087072;28;20055;-64
2022/12/24 11:28:32;;;;;;;7.97;1.65;;;0.50;99.90;;;;;;5087690;28;20055;-61
2022/12/24 11:31:03;;;;;;;5.75;0.85;;;0.40;99.90;;;;;;5084797;28;20043;-64
2022/12/24 11:33:43;;;;;;;6.25;1.38;;;0.50;99.90;;;;;;5087134;28;20069;-62
2022/12/24 11:36:12;;;;;;;9.95;1.33;;;0.50;99.90;;;;;;5087089;28;20051;-64
2022/12/24 11:38:39;;;;;;;2.40;0.90;;;0.40;99.90;;;;;;5085183;28;20131;-63
2022/12/24 11:41:10;;;;;;;4.32;1.30;;;0.40;99.90;;;;;;5086971;28;20158;-64
2022/12/24 11:43:43;;;;;;;5.22;1.50;;;0.40;99.90;;;;;;5088075;28;20469;-64
2022/12/24 11:46:20;;;;;;;3.78;0.77;;;0.40;99.90;;;;;;5086979;28;20047;-63
2022/12/24 11:49:02;;;;;;;3.35;0.80;;;0.40;99.90;;;;;;5084994;28;20079;-63
2022/12/24 11:51:34;;;;;;;4.10;1.80;;;0.40;99.90;;;;;;5067828;28;21274;-62
2022/12/24 11:54:23;;;;;;;2.30;0.70;;;0.30;99.90;;;;;;5087086;28;20094;-63
2022/12/24 11:56:53;;;;;;;4.22;0.77;;;0.30;99.90;;;;;;5085156;28;20161;-64
2022/12/24 11:59:32;;;;;;;2.00;0.60;;;0.30;99.90;;;;;;5086219;28;20051;-63
2022/12/24 12:02:03;;;;;;;11.85;1.60;;;0.30;99.90;;;;;;5086029;28;20128;-62
2022/12/24 12:04:34;;;;;;;3.75;0.85;;;0.30;99.90;;;;;;5086840;28;20056;-62
2022/12/24 12:07:11;;;;;;;2.92;0.82;;;0.30;99.90;;;;;;5084786;28;20063;-64
2022/12/24 12:09:48;;;;;;;4.32;1.58;;;0.30;99.90;;;;;;5087175;28;20051;-64
2022/12/24 12:12:21;;;;;;;9.77;1.77;;;0.20;99.90;;;;;;5086295;28;20044;-63
2022/12/24 12:14:52;;;;;;;1.40;0.93;;;0.20;99.90;;;;;;5084303;28;20101;-63
2022/12/24 12:17:31;;;;;;;2.28;1.45;;;0.20;99.90;;;;;;5086987;28;20055;-63
2022/12/24 12:20:23;;;;;;;3.42;0.85;;;0.20;99.90;;;;;;5086021;28;20121;-63
2022/12/24 12:23:15;;;;;;;1.75;0.68;;;0.20;99.90;;;;;;5084521;28;20055;-62
2022/12/24 12:25:58;;;;;;;1.60;0.70;;;0.20;99.90;;;;;;5086161;28;20141;-63
2022/12/24 12:28:32;;;;;;;2.88;1.13;;;0.20;99.90;;;;;;5086742;28;20066;-62
2022/12/24 12:31:10;;;;;;;8.55;1.77;;;0.20;99.90;;;;;;5083650;28;20059;-63
2022/12/24 12:34:13;;;;;;;1.52;1.20;;;0.10;99.90;;;;;;5087249;28;20140;-60
2022/12/24 12:36:49;;;;;;;3.53;2.28;;;0.10;99.90;;;;;;5083930;28;20052;-62
2022/12/24 12:39:17;;;;;;;3.75;0.95;;;0.20;99.90;;;;;;5086585;28;20047;-62
2022/12/24 12:42:13;;;;;;;3.15;1.10;;;0.10;99.90;;;;;;5086353;28;20818;-62
2022/12/24 12:44:59;;;;;;;3.33;0.60;;;0.10;99.90;;;;;;5064666;28;20585;-62
2022/12/24 12:47:43;;;;;;;6.97;0.80;;;0.10;99.90;;;;;;5086420;28;20055;-62
2022/12/24 12:50:21;;;;;;;3.67;1.58;;;0.10;99.90;;;;;;5085962;28;20226;-63
2022/12/24 12:52:53;;;;;;;3.25;1.05;;;0.00;99.90;;;;;;5084508;28;20496;-61
2022/12/24 12:55:26;;;;;;;2.58;0.70;;;0.00;99.90;;;;;;5085301;28;20134;-63
2022/12/24 12:57:58;;;;;;;3.83;0.90;;;0.00;99.90;;;;;;5086422;28;20051;-61
2022/12/24 13:00:30;;;;;;;2.65;0.88;;;0.00;99.90;;;;;;5086016;28;20039;-64
2022/12/24 13:03:18;;;;;;;1.52;0.80;;;0.00;99.90;;;;;;5084490;28;20052;-62
2022/12/24 13:06:23;;;;;;;4.57;1.33;;;0.00;99.90;;;;;;5086005;28;20134;-63
2022/12/24 13:09:28;;;;;;;3.30;1.00;;;0.00;99.90;;;;;;5058377;28;20075;-64
2022/12/24 13:12:25;;;;;;;2.53;0.90;;;0.00;99.90;;;;;;5086915;28;20146;-64
2022/12/24 13:15:14;;;;;;;11.07;1.05;;;0.00;99.90;;;;;;5074666;28;20047;-64